CFG4XJ LICJ-DAAG
Flight info
| Callsign | CFG4XJ |
|---|---|
| Flight time | 1h 30m |
| Altitude | 34000 |
| Route | TRP DCT TUPAL DCT CBN DCT TUC DCT KEMIR DCT MORJA DCT BJA DCT CI23 DCT OA |
| Aircraft | A321/M-SDE3FGHIRWY/LB1 |
Departure
| Time | 2026-05-08 19:46 |
|---|---|
| Airport | Falcone–Borsellino Airport (LICJ) |
Arrival
| Time | 2026-05-08 21:17 |
|---|---|
| Airport | Houari Boumediene Airport (DAAG) |
| Time | Latitude | Longitude | Altitude | Speed | Heading |
|---|---|---|---|---|---|
| 2026-05-08 19:05 | 38.18567 | 13.10666 | 53 ft | 0 kts | 337° |
| 2026-05-08 19:38 | 38.18555 | 13.10672 | 50 ft | 4 kts | 337° |
| 2026-05-08 19:39 | 38.18531 | 13.10685 | 49 ft | 2 kts | 337° |
| 2026-05-08 19:39 | 38.18509 | 13.10692 | 51 ft | 4 kts | 19° |
| 2026-05-08 19:39 | 38.18488 | 13.10674 | 49 ft | 4 kts | 55° |
| 2026-05-08 19:39 | 38.18484 | 13.10667 | 49 ft | 0 kts | 59° |
| 2026-05-08 19:42 | 38.18499 | 13.10699 | 50 ft | 12 kts | 61° |
| 2026-05-08 19:42 | 38.18486 | 13.10820 | 51 ft | 14 kts | 109° |
| 2026-05-08 19:42 | 38.18461 | 13.10920 | 53 ft | 9 kts | 112° |
| 2026-05-08 19:43 | 38.18422 | 13.10965 | 53 ft | 7 kts | 134° |
| 2026-05-08 19:43 | 38.18434 | 13.11026 | 53 ft | 14 kts | 64° |
| 2026-05-08 19:43 | 38.18483 | 13.11165 | 50 ft | 18 kts | 66° |
| 2026-05-08 19:43 | 38.18532 | 13.11304 | 53 ft | 17 kts | 66° |
| 2026-05-08 19:44 | 38.18574 | 13.11436 | 53 ft | 16 kts | 68° |
| 2026-05-08 19:44 | 38.18614 | 13.11558 | 53 ft | 14 kts | 69° |
| 2026-05-08 19:44 | 38.18614 | 13.11677 | 53 ft | 13 kts | 97° |
| 2026-05-08 19:44 | 38.18605 | 13.11744 | 53 ft | 5 kts | 99° |
| 2026-05-08 19:45 | 38.18601 | 13.11780 | 53 ft | 12 kts | 98° |
| 2026-05-08 19:45 | 38.18559 | 13.11890 | 53 ft | 11 kts | 163° |
| 2026-05-08 19:45 | 38.18511 | 13.11843 | 53 ft | 12 kts | 255° |
| 2026-05-08 19:45 | 38.18441 | 13.11656 | 53 ft | 43 kts | 244° |
| 2026-05-08 19:46 | 38.18232 | 13.11036 | 50 ft | 108 kts | 247° |
| 2026-05-08 19:46 | 38.17865 | 13.09952 | 50 ft | 157 kts | 246° |
| 2026-05-08 19:46 | 38.16965 | 13.07306 | 1189 ft | 162 kts | 248° |
| 2026-05-08 19:47 | 38.16515 | 13.05953 | 1634 ft | 172 kts | 248° |
| 2026-05-08 19:47 | 38.16016 | 13.04464 | 1808 ft | 194 kts | 248° |
| 2026-05-08 19:47 | 38.15576 | 13.02771 | 1950 ft | 213 kts | 261° |
| 2026-05-08 19:47 | 38.15564 | 13.00811 | 2081 ft | 234 kts | 281° |
| 2026-05-08 19:48 | 38.16143 | 12.98784 | 2379 ft | 253 kts | 303° |
| 2026-05-08 19:48 | 38.17306 | 12.97089 | 3063 ft | 257 kts | 323° |
| 2026-05-08 19:48 | 38.18818 | 12.95848 | 3810 ft | 260 kts | 326° |
| 2026-05-08 19:48 | 38.20201 | 12.94347 | 4581 ft | 263 kts | 313° |
| 2026-05-08 19:49 | 38.21300 | 12.92472 | 5350 ft | 266 kts | 303° |
| 2026-05-08 19:49 | 38.22313 | 12.90504 | 6148 ft | 266 kts | 303° |
| 2026-05-08 19:49 | 38.23326 | 12.88532 | 6924 ft | 266 kts | 302° |
| 2026-05-08 19:49 | 38.24338 | 12.86555 | 7684 ft | 266 kts | 302° |
| 2026-05-08 19:50 | 38.25349 | 12.84581 | 8453 ft | 266 kts | 301° |
| 2026-05-08 19:50 | 38.26359 | 12.82609 | 9224 ft | 266 kts | 301° |
| 2026-05-08 19:50 | 38.27185 | 12.80525 | 9949 ft | 264 kts | 282° |
| 2026-05-08 19:50 | 38.27129 | 12.78204 | 10570 ft | 268 kts | 253° |
| 2026-05-08 19:51 | 38.26088 | 12.76224 | 11178 ft | 280 kts | 225° |
| 2026-05-08 19:51 | 38.24454 | 12.74689 | 11369 ft | 303 kts | 220° |
| 2026-05-08 19:51 | 38.22646 | 12.73136 | 11484 ft | 325 kts | 218° |
| 2026-05-08 19:51 | 38.20677 | 12.71544 | 11606 ft | 346 kts | 213° |
| 2026-05-08 19:52 | 38.18457 | 12.70138 | 11721 ft | 366 kts | 211° |
| 2026-05-08 19:52 | 38.16143 | 12.68670 | 12023 ft | 376 kts | 211° |
| 2026-05-08 19:52 | 38.13797 | 12.67157 | 12523 ft | 380 kts | 212° |
| 2026-05-08 19:52 | 38.11438 | 12.65616 | 13078 ft | 383 kts | 212° |
| 2026-05-08 19:53 | 38.09065 | 12.64056 | 13634 ft | 385 kts | 212° |
| 2026-05-08 19:53 | 38.06675 | 12.62483 | 14140 ft | 388 kts | 212° |
| 2026-05-08 19:53 | 38.04277 | 12.60908 | 14639 ft | 389 kts | 212° |
| 2026-05-08 19:53 | 38.01870 | 12.59332 | 15172 ft | 389 kts | 212° |
| 2026-05-08 19:54 | 37.99456 | 12.57754 | 15644 ft | 391 kts | 212° |
| 2026-05-08 19:54 | 37.97026 | 12.56173 | 16163 ft | 393 kts | 212° |
| 2026-05-08 19:54 | 37.94588 | 12.54590 | 16673 ft | 394 kts | 212° |
| 2026-05-08 19:54 | 37.92147 | 12.53001 | 17193 ft | 395 kts | 213° |
| 2026-05-08 19:55 | 37.89845 | 12.51147 | 17694 ft | 390 kts | 223° |
| 2026-05-08 19:55 | 37.87876 | 12.48816 | 18192 ft | 386 kts | 232° |
| 2026-05-08 19:55 | 37.86121 | 12.46242 | 18641 ft | 387 kts | 233° |
| 2026-05-08 19:55 | 37.84354 | 12.43668 | 19068 ft | 388 kts | 232° |
| 2026-05-08 19:56 | 37.82571 | 12.41086 | 19493 ft | 390 kts | 232° |
| 2026-05-08 19:56 | 37.80808 | 12.38536 | 19907 ft | 391 kts | 232° |
| 2026-05-08 19:56 | 37.79014 | 12.35939 | 20319 ft | 393 kts | 232° |
| 2026-05-08 19:56 | 37.77214 | 12.33333 | 20727 ft | 394 kts | 232° |
| 2026-05-08 19:57 | 37.75406 | 12.30715 | 21129 ft | 396 kts | 232° |
| 2026-05-08 19:57 | 37.73591 | 12.28091 | 21523 ft | 398 kts | 232° |
| 2026-05-08 19:57 | 37.71763 | 12.25452 | 21909 ft | 400 kts | 232° |
| 2026-05-08 19:57 | 37.69929 | 12.22807 | 22291 ft | 401 kts | 232° |
| 2026-05-08 19:58 | 37.68086 | 12.20149 | 22670 ft | 403 kts | 232° |
| 2026-05-08 19:58 | 37.66233 | 12.17478 | 23049 ft | 405 kts | 232° |
| 2026-05-08 19:58 | 37.64372 | 12.14799 | 23423 ft | 407 kts | 232° |
| 2026-05-08 19:58 | 37.62503 | 12.12106 | 23755 ft | 409 kts | 232° |
| 2026-05-08 19:59 | 37.60628 | 12.09405 | 24051 ft | 410 kts | 232° |
| 2026-05-08 19:59 | 37.58741 | 12.06693 | 24346 ft | 412 kts | 232° |
| 2026-05-08 19:59 | 37.56849 | 12.03974 | 24635 ft | 414 kts | 232° |
| 2026-05-08 19:59 | 37.54940 | 12.01242 | 24926 ft | 416 kts | 232° |
| 2026-05-08 20:00 | 37.53024 | 11.98503 | 25218 ft | 417 kts | 232° |
| 2026-05-08 20:00 | 37.51102 | 11.95755 | 25525 ft | 419 kts | 233° |
| 2026-05-08 20:00 | 37.49173 | 11.92991 | 25804 ft | 421 kts | 233° |
| 2026-05-08 20:00 | 37.47238 | 11.90221 | 26096 ft | 422 kts | 233° |
| 2026-05-08 20:01 | 37.45295 | 11.87441 | 26415 ft | 422 kts | 233° |
| 2026-05-08 20:01 | 37.43357 | 11.84676 | 26804 ft | 421 kts | 233° |
| 2026-05-08 20:01 | 37.41422 | 11.81922 | 27178 ft | 420 kts | 233° |
| 2026-05-08 20:01 | 37.39489 | 11.79175 | 27550 ft | 419 kts | 233° |
| 2026-05-08 20:02 | 37.37562 | 11.76436 | 27923 ft | 418 kts | 233° |
| 2026-05-08 20:02 | 37.35638 | 11.73701 | 28288 ft | 417 kts | 233° |
| 2026-05-08 20:02 | 37.33720 | 11.70975 | 28658 ft | 416 kts | 233° |
| 2026-05-08 20:02 | 37.31809 | 11.68259 | 29010 ft | 415 kts | 233° |
| 2026-05-08 20:03 | 37.29897 | 11.65546 | 29370 ft | 414 kts | 233° |
| 2026-05-08 20:03 | 37.27992 | 11.62842 | 29730 ft | 413 kts | 233° |
| 2026-05-08 20:03 | 37.26089 | 11.60143 | 30070 ft | 412 kts | 233° |
| 2026-05-08 20:03 | 37.24186 | 11.57445 | 30370 ft | 412 kts | 233° |
| 2026-05-08 20:04 | 37.22289 | 11.54757 | 30656 ft | 411 kts | 234° |
| 2026-05-08 20:04 | 37.20390 | 11.52073 | 30950 ft | 411 kts | 234° |
| 2026-05-08 20:04 | 37.18495 | 11.49399 | 31237 ft | 410 kts | 234° |
| 2026-05-08 20:04 | 37.16603 | 11.46737 | 31547 ft | 409 kts | 234° |
| 2026-05-08 20:05 | 37.14709 | 11.44082 | 31851 ft | 408 kts | 234° |
| 2026-05-08 20:05 | 37.12816 | 11.41432 | 32155 ft | 407 kts | 234° |
| 2026-05-08 20:05 | 37.10927 | 11.38787 | 32463 ft | 407 kts | 234° |
| 2026-05-08 20:05 | 37.09045 | 11.36149 | 32762 ft | 406 kts | 234° |
| 2026-05-08 20:06 | 37.07166 | 11.33513 | 33070 ft | 405 kts | 234° |
| 2026-05-08 20:06 | 37.05296 | 11.30889 | 33377 ft | 404 kts | 234° |
| 2026-05-08 20:06 | 37.03424 | 11.28271 | 33683 ft | 403 kts | 234° |
| 2026-05-08 20:06 | 37.01663 | 11.25577 | 33964 ft | 396 kts | 243° |
| 2026-05-08 20:07 | 37.00531 | 11.22503 | 34050 ft | 386 kts | 258° |
| 2026-05-08 20:07 | 37.00131 | 11.19207 | 34064 ft | 383 kts | 267° |
| 2026-05-08 20:07 | 36.99783 | 11.12569 | 34069 ft | 383 kts | 267° |
| 2026-05-08 20:08 | 36.99417 | 11.05925 | 34069 ft | 383 kts | 267° |
| 2026-05-08 20:08 | 36.99037 | 10.99281 | 34072 ft | 383 kts | 266° |
| 2026-05-08 20:09 | 36.98657 | 10.92634 | 34068 ft | 383 kts | 266° |
| 2026-05-08 20:09 | 36.98276 | 10.85991 | 34075 ft | 383 kts | 266° |
| 2026-05-08 20:10 | 36.97897 | 10.79391 | 34067 ft | 383 kts | 266° |
| 2026-05-08 20:10 | 36.97505 | 10.72739 | 34069 ft | 383 kts | 266° |
| 2026-05-08 20:11 | 36.97109 | 10.66087 | 34072 ft | 383 kts | 266° |
| 2026-05-08 20:11 | 36.96714 | 10.59441 | 34072 ft | 383 kts | 266° |
| 2026-05-08 20:12 | 36.96312 | 10.52793 | 34070 ft | 384 kts | 266° |
| 2026-05-08 20:12 | 36.95908 | 10.46141 | 34079 ft | 384 kts | 266° |
| 2026-05-08 20:13 | 36.95498 | 10.39481 | 34082 ft | 384 kts | 266° |
| 2026-05-08 20:13 | 36.95087 | 10.32818 | 34080 ft | 385 kts | 266° |
| 2026-05-08 20:14 | 36.94676 | 10.26148 | 34088 ft | 385 kts | 266° |
| 2026-05-08 20:14 | 36.94320 | 10.20604 | 34084 ft | 385 kts | 266° |
| 2026-05-08 20:15 | 36.93892 | 10.13941 | 34085 ft | 385 kts | 266° |
| 2026-05-08 20:15 | 36.93468 | 10.07266 | 34085 ft | 385 kts | 266° |
| 2026-05-08 20:16 | 36.93043 | 10.00592 | 34088 ft | 385 kts | 266° |
| 2026-05-08 20:16 | 36.92605 | 9.93914 | 34090 ft | 385 kts | 266° |
| 2026-05-08 20:17 | 36.92162 | 9.87244 | 34088 ft | 385 kts | 265° |
| 2026-05-08 20:17 | 36.91720 | 9.80575 | 34084 ft | 385 kts | 266° |
| 2026-05-08 20:18 | 36.91275 | 9.73899 | 34081 ft | 385 kts | 265° |
| 2026-05-08 20:18 | 36.90821 | 9.67222 | 34078 ft | 386 kts | 265° |
| 2026-05-08 20:19 | 36.90362 | 9.60543 | 34085 ft | 386 kts | 265° |
| 2026-05-08 20:19 | 36.89905 | 9.53865 | 34083 ft | 386 kts | 265° |
| 2026-05-08 20:20 | 36.89449 | 9.47193 | 34086 ft | 386 kts | 265° |
| 2026-05-08 20:20 | 36.88984 | 9.40519 | 34091 ft | 386 kts | 265° |
| 2026-05-08 20:21 | 36.88515 | 9.33847 | 34089 ft | 385 kts | 265° |
| 2026-05-08 20:21 | 36.88040 | 9.27182 | 34092 ft | 385 kts | 265° |
| 2026-05-08 20:22 | 36.87558 | 9.20517 | 34094 ft | 385 kts | 265° |
| 2026-05-08 20:22 | 36.87077 | 9.13853 | 34093 ft | 385 kts | 265° |
| 2026-05-08 20:23 | 36.86597 | 9.07196 | 34090 ft | 385 kts | 265° |
| 2026-05-08 20:23 | 36.86111 | 9.00536 | 34091 ft | 385 kts | 265° |
| 2026-05-08 20:24 | 36.85622 | 8.93885 | 34095 ft | 385 kts | 265° |
| 2026-05-08 20:24 | 36.85130 | 8.87228 | 34093 ft | 385 kts | 265° |
| 2026-05-08 20:25 | 36.84633 | 8.80574 | 34091 ft | 385 kts | 265° |
| 2026-05-08 20:25 | 36.84124 | 8.73925 | 34088 ft | 385 kts | 265° |
| 2026-05-08 20:26 | 36.83620 | 8.67276 | 34078 ft | 385 kts | 265° |
| 2026-05-08 20:26 | 36.83231 | 8.60615 | 34075 ft | 385 kts | 268° |
| 2026-05-08 20:27 | 36.83149 | 8.53931 | 34070 ft | 385 kts | 269° |
| 2026-05-08 20:27 | 36.83099 | 8.47246 | 34067 ft | 385 kts | 269° |
| 2026-05-08 20:28 | 36.82986 | 8.40566 | 34067 ft | 385 kts | 268° |
| 2026-05-08 20:28 | 36.82836 | 8.33884 | 34067 ft | 385 kts | 268° |
| 2026-05-08 20:29 | 36.82686 | 8.27194 | 34067 ft | 385 kts | 268° |
| 2026-05-08 20:29 | 36.82536 | 8.20511 | 34069 ft | 386 kts | 268° |
| 2026-05-08 20:30 | 36.82384 | 8.13775 | 34062 ft | 386 kts | 268° |
| 2026-05-08 20:30 | 36.82229 | 8.07131 | 34064 ft | 386 kts | 268° |
| 2026-05-08 20:31 | 36.82068 | 8.00438 | 34065 ft | 386 kts | 268° |
| 2026-05-08 20:31 | 36.81907 | 7.93747 | 34060 ft | 386 kts | 268° |
| 2026-05-08 20:32 | 36.81741 | 7.87005 | 34061 ft | 386 kts | 268° |
| 2026-05-08 20:32 | 36.81571 | 7.80355 | 34064 ft | 386 kts | 268° |
| 2026-05-08 20:33 | 36.81398 | 7.73658 | 34064 ft | 386 kts | 267° |
| 2026-05-08 20:33 | 36.81219 | 7.66964 | 34061 ft | 386 kts | 267° |
| 2026-05-08 20:34 | 36.81040 | 7.60259 | 34066 ft | 387 kts | 267° |
| 2026-05-08 20:35 | 36.80762 | 7.50199 | 34066 ft | 387 kts | 267° |
| 2026-05-08 20:35 | 36.80570 | 7.43497 | 34072 ft | 387 kts | 267° |
| 2026-05-08 20:36 | 36.80374 | 7.36791 | 34071 ft | 387 kts | 267° |
| 2026-05-08 20:36 | 36.80181 | 7.30085 | 34070 ft | 387 kts | 267° |
| 2026-05-08 20:37 | 36.79981 | 7.23375 | 34068 ft | 387 kts | 267° |
| 2026-05-08 20:37 | 36.79776 | 7.16659 | 34070 ft | 387 kts | 267° |
| 2026-05-08 20:38 | 36.79561 | 7.09944 | 34069 ft | 387 kts | 267° |
| 2026-05-08 20:38 | 36.79344 | 7.03234 | 34066 ft | 387 kts | 267° |
| 2026-05-08 20:39 | 36.79129 | 6.96512 | 34065 ft | 388 kts | 266° |
| 2026-05-08 20:39 | 36.78908 | 6.89793 | 34067 ft | 388 kts | 266° |
| 2026-05-08 20:40 | 36.78681 | 6.83077 | 34067 ft | 388 kts | 266° |
| 2026-05-08 20:40 | 36.78449 | 6.76350 | 34067 ft | 388 kts | 266° |
| 2026-05-08 20:41 | 36.78212 | 6.69626 | 34066 ft | 388 kts | 266° |
| 2026-05-08 20:41 | 36.77970 | 6.62893 | 34059 ft | 389 kts | 266° |
| 2026-05-08 20:42 | 36.77734 | 6.56158 | 34056 ft | 389 kts | 266° |
| 2026-05-08 20:42 | 36.77491 | 6.49415 | 34049 ft | 389 kts | 266° |
| 2026-05-08 20:43 | 36.77242 | 6.42666 | 34049 ft | 390 kts | 266° |
| 2026-05-08 20:43 | 36.76985 | 6.35913 | 34048 ft | 390 kts | 266° |
| 2026-05-08 20:44 | 36.76728 | 6.29159 | 34045 ft | 390 kts | 266° |
| 2026-05-08 20:44 | 36.76467 | 6.22394 | 34041 ft | 390 kts | 266° |
| 2026-05-08 20:45 | 36.76201 | 6.15656 | 34043 ft | 391 kts | 266° |
| 2026-05-08 20:45 | 36.75930 | 6.08894 | 34037 ft | 391 kts | 266° |
| 2026-05-08 20:46 | 36.75653 | 6.02128 | 34039 ft | 391 kts | 265° |
| 2026-05-08 20:46 | 36.75378 | 5.95359 | 34043 ft | 391 kts | 265° |
| 2026-05-08 20:47 | 36.75099 | 5.88589 | 34039 ft | 391 kts | 265° |
| 2026-05-08 20:47 | 36.74813 | 5.81811 | 34037 ft | 391 kts | 265° |
| 2026-05-08 20:48 | 36.74521 | 5.75041 | 34038 ft | 391 kts | 265° |
| 2026-05-08 20:48 | 36.74230 | 5.68261 | 34032 ft | 391 kts | 265° |
| 2026-05-08 20:49 | 36.73935 | 5.61481 | 34027 ft | 392 kts | 265° |
| 2026-05-08 20:49 | 36.73630 | 5.54695 | 34029 ft | 392 kts | 265° |
| 2026-05-08 20:50 | 36.73322 | 5.47905 | 34025 ft | 392 kts | 265° |
| 2026-05-08 20:50 | 36.73016 | 5.41109 | 34029 ft | 393 kts | 265° |
| 2026-05-08 20:51 | 36.72703 | 5.34315 | 34031 ft | 393 kts | 265° |
| 2026-05-08 20:51 | 36.72388 | 5.27514 | 34033 ft | 393 kts | 265° |
| 2026-05-08 20:52 | 36.72069 | 5.20716 | 34035 ft | 393 kts | 265° |
| 2026-05-08 20:52 | 36.71738 | 5.13911 | 34034 ft | 393 kts | 265° |
| 2026-05-08 20:53 | 36.71506 | 5.07089 | 33639 ft | 395 kts | 271° |
| 2026-05-08 20:53 | 36.71712 | 5.03671 | 33265 ft | 396 kts | 272° |
| 2026-05-08 20:53 | 36.71919 | 5.00243 | 32881 ft | 397 kts | 271° |
| 2026-05-08 20:53 | 36.72118 | 4.96800 | 32498 ft | 398 kts | 271° |
| 2026-05-08 20:54 | 36.72314 | 4.93356 | 32115 ft | 400 kts | 271° |
| 2026-05-08 20:54 | 36.72510 | 4.89892 | 31741 ft | 401 kts | 271° |
| 2026-05-08 20:54 | 36.72640 | 4.87591 | 31490 ft | 402 kts | 271° |
| 2026-05-08 20:54 | 36.72838 | 4.84113 | 31126 ft | 403 kts | 271° |
| 2026-05-08 20:55 | 36.73037 | 4.80623 | 30763 ft | 404 kts | 271° |
| 2026-05-08 20:55 | 36.73232 | 4.77128 | 30404 ft | 405 kts | 271° |
| 2026-05-08 20:55 | 36.73426 | 4.73619 | 30043 ft | 406 kts | 271° |
| 2026-05-08 20:55 | 36.73621 | 4.70100 | 29626 ft | 408 kts | 271° |
| 2026-05-08 20:56 | 36.73817 | 4.66567 | 29216 ft | 409 kts | 271° |
| 2026-05-08 20:56 | 36.74014 | 4.63028 | 28807 ft | 411 kts | 271° |
| 2026-05-08 20:56 | 36.74212 | 4.59462 | 28407 ft | 413 kts | 271° |
| 2026-05-08 20:56 | 36.74408 | 4.55884 | 28000 ft | 415 kts | 271° |
| 2026-05-08 20:57 | 36.74602 | 4.52289 | 27627 ft | 417 kts | 271° |
| 2026-05-08 20:57 | 36.74796 | 4.48668 | 27243 ft | 420 kts | 271° |
| 2026-05-08 20:57 | 36.74991 | 4.45024 | 26865 ft | 422 kts | 271° |
| 2026-05-08 20:57 | 36.75184 | 4.41367 | 26491 ft | 423 kts | 271° |
| 2026-05-08 20:58 | 36.75379 | 4.37700 | 26128 ft | 425 kts | 271° |
| 2026-05-08 20:58 | 36.75571 | 4.34012 | 25765 ft | 427 kts | 271° |
| 2026-05-08 20:58 | 36.75763 | 4.30299 | 25402 ft | 429 kts | 271° |
| 2026-05-08 20:58 | 36.75956 | 4.26580 | 25047 ft | 431 kts | 271° |
| 2026-05-08 20:59 | 36.76151 | 4.22832 | 24693 ft | 434 kts | 271° |
| 2026-05-08 20:59 | 36.76346 | 4.19074 | 24360 ft | 436 kts | 271° |
| 2026-05-08 20:59 | 36.76542 | 4.15296 | 24008 ft | 438 kts | 271° |
| 2026-05-08 20:59 | 36.76735 | 4.11494 | 23676 ft | 440 kts | 271° |
| 2026-05-08 21:00 | 36.76925 | 4.07700 | 23291 ft | 440 kts | 271° |
| 2026-05-08 21:00 | 36.77115 | 4.03893 | 22888 ft | 438 kts | 271° |
| 2026-05-08 21:00 | 36.77304 | 4.00111 | 22493 ft | 436 kts | 271° |
| 2026-05-08 21:00 | 36.77493 | 3.96343 | 22099 ft | 434 kts | 271° |
| 2026-05-08 21:01 | 36.77680 | 3.92591 | 21719 ft | 432 kts | 271° |
| 2026-05-08 21:01 | 36.77864 | 3.88850 | 21340 ft | 431 kts | 271° |
| 2026-05-08 21:01 | 36.78045 | 3.85133 | 20962 ft | 429 kts | 271° |
| 2026-05-08 21:01 | 36.78241 | 3.81422 | 20592 ft | 428 kts | 272° |
| 2026-05-08 21:02 | 36.78475 | 3.77735 | 20229 ft | 426 kts | 273° |
| 2026-05-08 21:02 | 36.78736 | 3.74062 | 19868 ft | 425 kts | 273° |
| 2026-05-08 21:02 | 36.79005 | 3.70399 | 19510 ft | 423 kts | 273° |
| 2026-05-08 21:02 | 36.79273 | 3.66748 | 19153 ft | 422 kts | 273° |
| 2026-05-08 21:03 | 36.79534 | 3.63110 | 18811 ft | 421 kts | 273° |
| 2026-05-08 21:03 | 36.79787 | 3.59479 | 18462 ft | 419 kts | 273° |
| 2026-05-08 21:03 | 36.79965 | 3.56904 | 18215 ft | 418 kts | 273° |
| 2026-05-08 21:03 | 36.80208 | 3.53296 | 17822 ft | 417 kts | 273° |
| 2026-05-08 21:04 | 36.80445 | 3.49698 | 17440 ft | 415 kts | 272° |
| 2026-05-08 21:04 | 36.80679 | 3.46115 | 16898 ft | 413 kts | 272° |
| 2026-05-08 21:04 | 36.80909 | 3.42565 | 16292 ft | 407 kts | 272° |
| 2026-05-08 21:04 | 36.81137 | 3.39109 | 15617 ft | 393 kts | 272° |
| 2026-05-08 21:05 | 36.81360 | 3.35763 | 14913 ft | 382 kts | 271° |
| 2026-05-08 21:05 | 36.81578 | 3.32504 | 14211 ft | 372 kts | 271° |
| 2026-05-08 21:05 | 36.81787 | 3.29318 | 13482 ft | 364 kts | 271° |
| 2026-05-08 21:05 | 36.81989 | 3.26199 | 12708 ft | 357 kts | 271° |
| 2026-05-08 21:06 | 36.82187 | 3.23137 | 11959 ft | 351 kts | 271° |
| 2026-05-08 21:06 | 36.82381 | 3.20125 | 11222 ft | 345 kts | 271° |
| 2026-05-08 21:06 | 36.82562 | 3.17157 | 10498 ft | 340 kts | 270° |
| 2026-05-08 21:06 | 36.82731 | 3.14243 | 9792 ft | 336 kts | 270° |
| 2026-05-08 21:07 | 36.82894 | 3.11308 | 9021 ft | 341 kts | 270° |
| 2026-05-08 21:07 | 36.83038 | 3.08332 | 8322 ft | 345 kts | 270° |
| 2026-05-08 21:07 | 36.83161 | 3.05371 | 7875 ft | 339 kts | 270° |
| 2026-05-08 21:07 | 36.83267 | 3.02496 | 7429 ft | 324 kts | 270° |
| 2026-05-08 21:08 | 36.83356 | 2.99795 | 7007 ft | 308 kts | 270° |
| 2026-05-08 21:08 | 36.83435 | 2.97182 | 6580 ft | 295 kts | 270° |
| 2026-05-08 21:08 | 36.83508 | 2.94679 | 6162 ft | 283 kts | 270° |
| 2026-05-08 21:08 | 36.83578 | 2.92287 | 5786 ft | 270 kts | 270° |
| 2026-05-08 21:09 | 36.83642 | 2.89985 | 5418 ft | 264 kts | 270° |
| 2026-05-08 21:09 | 36.83697 | 2.87701 | 5054 ft | 264 kts | 270° |
| 2026-05-08 21:09 | 36.83651 | 2.85421 | 4690 ft | 262 kts | 258° |
| 2026-05-08 21:09 | 36.82975 | 2.83345 | 4310 ft | 258 kts | 233° |
| 2026-05-08 21:10 | 36.81687 | 2.81834 | 4008 ft | 252 kts | 207° |
| 2026-05-08 21:10 | 36.80096 | 2.81138 | 3981 ft | 237 kts | 185° |
| 2026-05-08 21:10 | 36.78475 | 2.81249 | 3972 ft | 233 kts | 162° |
| 2026-05-08 21:10 | 36.77028 | 2.82111 | 3976 ft | 231 kts | 141° |
| 2026-05-08 21:11 | 36.75861 | 2.83477 | 3986 ft | 231 kts | 134° |
| 2026-05-08 21:11 | 36.74719 | 2.84884 | 3990 ft | 231 kts | 134° |
| 2026-05-08 21:11 | 36.73573 | 2.86293 | 3984 ft | 231 kts | 134° |
| 2026-05-08 21:11 | 36.72428 | 2.87691 | 3867 ft | 228 kts | 134° |
| 2026-05-08 21:12 | 36.71321 | 2.89046 | 3777 ft | 218 kts | 134° |
| 2026-05-08 21:12 | 36.70340 | 2.90428 | 3625 ft | 209 kts | 121° |
| 2026-05-08 21:12 | 36.69808 | 2.92081 | 3522 ft | 206 kts | 100° |
| 2026-05-08 21:12 | 36.69715 | 2.93861 | 3401 ft | 205 kts | 92° |
| 2026-05-08 21:13 | 36.69679 | 2.95634 | 3320 ft | 205 kts | 92° |
| 2026-05-08 21:13 | 36.69643 | 2.97409 | 3136 ft | 202 kts | 91° |
| 2026-05-08 21:13 | 36.69606 | 2.99121 | 2882 ft | 194 kts | 91° |
| 2026-05-08 21:13 | 36.69570 | 3.00770 | 2640 ft | 187 kts | 91° |
| 2026-05-08 21:14 | 36.69535 | 3.02365 | 2394 ft | 181 kts | 91° |
| 2026-05-08 21:14 | 36.69502 | 3.03909 | 2172 ft | 174 kts | 91° |
| 2026-05-08 21:14 | 36.69470 | 3.05355 | 1953 ft | 163 kts | 91° |
| 2026-05-08 21:14 | 36.69439 | 3.06738 | 1735 ft | 157 kts | 91° |
| 2026-05-08 21:15 | 36.69409 | 3.08056 | 1513 ft | 148 kts | 91° |
| 2026-05-08 21:15 | 36.69381 | 3.09313 | 1333 ft | 143 kts | 91° |
| 2026-05-08 21:15 | 36.69354 | 3.10549 | 1144 ft | 143 kts | 91° |
| 2026-05-08 21:15 | 36.69326 | 3.11776 | 949 ft | 142 kts | 91° |
| 2026-05-08 21:16 | 36.69297 | 3.13004 | 763 ft | 141 kts | 90° |
| 2026-05-08 21:16 | 36.69276 | 3.14224 | 621 ft | 141 kts | 90° |
| 2026-05-08 21:16 | 36.69248 | 3.15445 | 410 ft | 141 kts | 91° |
| 2026-05-08 21:16 | 36.69216 | 3.16663 | 202 ft | 140 kts | 91° |
| 2026-05-08 21:17 | 36.69187 | 3.17868 | 96 ft | 135 kts | 90° |
| 2026-05-08 21:17 | 36.69163 | 3.18924 | 79 ft | 105 kts | 92° |
| 2026-05-08 21:17 | 36.69146 | 3.19502 | 70 ft | 35 kts | 88° |
| 2026-05-08 21:17 | 36.69160 | 3.19771 | 69 ft | 29 kts | 73° |
| 2026-05-08 21:18 | 36.69247 | 3.19981 | 63 ft | 23 kts | 64° |
| 2026-05-08 21:18 | 36.69288 | 3.20096 | 65 ft | 8 kts | 76° |
| 2026-05-08 21:18 | 36.69297 | 3.20163 | 65 ft | 7 kts | 81° |
| 2026-05-08 21:18 | 36.69302 | 3.20222 | 71 ft | 6 kts | 87° |
| 2026-05-08 21:19 | 36.69307 | 3.20274 | 61 ft | 5 kts | 71° |
| 2026-05-08 21:19 | 36.69346 | 3.20290 | 65 ft | 7 kts | 358° |
| 2026-05-08 21:19 | 36.69394 | 3.20289 | 68 ft | 6 kts | 358° |
| 2026-05-08 21:19 | 36.69430 | 3.20302 | 62 ft | 4 kts | 46° |
| 2026-05-08 21:20 | 36.69451 | 3.20336 | 66 ft | 9 kts | 52° |
| 2026-05-08 21:20 | 36.69508 | 3.20367 | 70 ft | 9 kts | 359° |
| 2026-05-08 21:20 | 36.69569 | 3.20367 | 70 ft | 8 kts | 360° |
| 2026-05-08 21:20 | 36.69624 | 3.20369 | 70 ft | 7 kts | 360° |
| 2026-05-08 21:21 | 36.69636 | 3.20349 | 65 ft | 0 kts | 272° |
| 2026-05-08 21:21 | 36.69636 | 3.20334 | 70 ft | 4 kts | 272° |
| 2026-05-08 21:21 | 36.69637 | 3.20316 | 66 ft | 0 kts | 271° |
| 2026-05-08 21:21 | 36.69637 | 3.20313 | 66 ft | 1 kts | 271° |
| 2026-05-08 21:22 | 36.69637 | 3.20300 | 64 ft | 2 kts | 271° |
| 2026-05-08 21:22 | 36.69637 | 3.20287 | 62 ft | 1 kts | 270° |
| 2026-05-08 21:22 | 36.69637 | 3.20283 | 63 ft | 0 kts | 270° |